sensor_id;sensor_type;location;lat;lon;timestamp;P1;durP1;ratioP1;P2;durP2;ratioP2
67798;SDS011;54596;43.216;27.904;2022-12-18T00:01:29;8.05;;;4.20;;
67798;SDS011;54596;43.216;27.904;2022-12-18T00:03:59;8.48;;;4.10;;
67798;SDS011;54596;43.216;27.904;2022-12-18T00:06:27;8.15;;;4.13;;
67798;SDS011;54596;43.216;27.904;2022-12-18T00:08:54;8.00;;;3.90;;
67798;SDS011;54596;43.216;27.904;2022-12-18T00:11:21;7.28;;;3.80;;
67798;SDS011;54596;43.216;27.904;2022-12-18T00:13:48;7.85;;;3.60;;
67798;SDS011;54596;43.216;27.904;2022-12-18T00:16:18;7.60;;;3.63;;
67798;SDS011;54596;43.216;27.904;2022-12-18T00:18:46;7.50;;;3.78;;
67798;SDS011;54596;43.216;27.904;2022-12-18T00:21:12;7.10;;;3.78;;
67798;SDS011;54596;43.216;27.904;2022-12-18T00:23:39;7.03;;;3.70;;
67798;SDS011;54596;43.216;27.904;2022-12-18T00:26:06;6.90;;;3.55;;
67798;SDS011;54596;43.216;27.904;2022-12-18T00:28:34;8.07;;;3.90;;
67798;SDS011;54596;43.216;27.904;2022-12-18T00:31:04;7.82;;;4.10;;
67798;SDS011;54596;43.216;27.904;2022-12-18T00:33:31;7.50;;;3.88;;
67798;SDS011;54596;43.216;27.904;2022-12-18T00:36:06;7.70;;;3.90;;
67798;SDS011;54596;43.216;27.904;2022-12-18T00:38:35;7.80;;;3.92;;
67798;SDS011;54596;43.216;27.904;2022-12-18T00:41:00;7.60;;;3.95;;
67798;SDS011;54596;43.216;27.904;2022-12-18T00:43:26;7.65;;;3.70;;
67798;SDS011;54596;43.216;27.904;2022-12-18T00:45:52;7.57;;;3.80;;
67798;SDS011;54596;43.216;27.904;2022-12-18T00:48:17;7.40;;;3.90;;
67798;SDS011;54596;43.216;27.904;2022-12-18T00:50:43;7.03;;;3.70;;
67798;SDS011;54596;43.216;27.904;2022-12-18T00:53:09;8.15;;;3.55;;
67798;SDS011;54596;43.216;27.904;2022-12-18T00:55:34;7.13;;;3.80;;
67798;SDS011;54596;43.216;27.904;2022-12-18T00:58:00;7.50;;;4.00;;
67798;SDS011;54596;43.216;27.904;2022-12-18T01:00:25;8.05;;;3.63;;
67798;SDS011;54596;43.216;27.904;2022-12-18T01:02:51;7.75;;;3.80;;
67798;SDS011;54596;43.216;27.904;2022-12-18T01:05:16;7.57;;;3.75;;
67798;SDS011;54596;43.216;27.904;2022-12-18T01:07:42;7.30;;;3.80;;
67798;SDS011;54596;43.216;27.904;2022-12-18T01:10:08;7.93;;;3.65;;
67798;SDS011;54596;43.216;27.904;2022-12-18T01:12:36;7.78;;;3.60;;
67798;SDS011;54596;43.216;27.904;2022-12-18T01:15:02;7.40;;;3.90;;
67798;SDS011;54596;43.216;27.904;2022-12-18T01:17:28;7.30;;;3.85;;
67798;SDS011;54596;43.216;27.904;2022-12-18T01:19:53;7.05;;;3.65;;
67798;SDS011;54596;43.216;27.904;2022-12-18T01:22:19;9.52;;;3.75;;
67798;SDS011;54596;43.216;27.904;2022-12-18T01:24:44;8.63;;;3.80;;
67798;SDS011;54596;43.216;27.904;2022-12-18T01:27:09;7.47;;;3.50;;
67798;SDS011;54596;43.216;27.904;2022-12-18T01:29:35;8.20;;;3.90;;
67798;SDS011;54596;43.216;27.904;2022-12-18T01:32:00;7.97;;;3.78;;
67798;SDS011;54596;43.216;27.904;2022-12-18T01:34:26;7.20;;;3.90;;
67798;SDS011;54596;43.216;27.904;2022-12-18T01:36:51;7.63;;;3.70;;
67798;SDS011;54596;43.216;27.904;2022-12-18T01:39:17;8.07;;;3.72;;
67798;SDS011;54596;43.216;27.904;2022-12-18T01:41:44;8.70;;;3.95;;
67798;SDS011;54596;43.216;27.904;2022-12-18T01:50:07;8.10;;;4.18;;
67798;SDS011;54596;43.216;27.904;2022-12-18T01:52:48;8.20;;;4.00;;
67798;SDS011;54596;43.216;27.904;2022-12-18T01:55:17;7.53;;;3.90;;
67798;SDS011;54596;43.216;27.904;2022-12-18T01:57:45;7.22;;;4.00;;
67798;SDS011;54596;43.216;27.904;2022-12-18T02:00:13;6.60;;;3.47;;
67798;SDS011;54596;43.216;27.904;2022-12-18T02:02:43;8.18;;;3.83;;
67798;SDS011;54596;43.216;27.904;2022-12-18T02:05:11;7.32;;;3.60;;
67798;SDS011;54596;43.216;27.904;2022-12-18T02:10:24;8.80;;;4.00;;
67798;SDS011;54596;43.216;27.904;2022-12-18T02:13:05;8.57;;;4.05;;
67798;SDS011;54596;43.216;27.904;2022-12-18T02:15:39;8.80;;;4.25;;
67798;SDS011;54596;43.216;27.904;2022-12-18T02:18:12;7.53;;;3.95;;
67798;SDS011;54596;43.216;27.904;2022-12-18T02:20:45;8.98;;;4.15;;
67798;SDS011;54596;43.216;27.904;2022-12-18T02:29:12;7.45;;;3.63;;
67798;SDS011;54596;43.216;27.904;2022-12-18T02:32:02;7.57;;;3.92;;
67798;SDS011;54596;43.216;27.904;2022-12-18T02:34:34;8.23;;;4.30;;
67798;SDS011;54596;43.216;27.904;2022-12-18T02:37:04;8.77;;;4.35;;
67798;SDS011;54596;43.216;27.904;2022-12-18T02:39:33;9.25;;;4.65;;
67798;SDS011;54596;43.216;27.904;2022-12-18T02:42:00;8.85;;;4.70;;
67798;SDS011;54596;43.216;27.904;2022-12-18T02:46:59;10.45;;;4.50;;
67798;SDS011;54596;43.216;27.904;2022-12-18T02:59:56;7.40;;;4.10;;
67798;SDS011;54596;43.216;27.904;2022-12-18T03:02:33;7.82;;;4.18;;
67798;SDS011;54596;43.216;27.904;2022-12-18T03:05:11;9.25;;;4.30;;
67798;SDS011;54596;43.216;27.904;2022-12-18T03:07:46;8.00;;;4.13;;
67798;SDS011;54596;43.216;27.904;2022-12-18T03:10:19;7.70;;;4.10;;
67798;SDS011;54596;43.216;27.904;2022-12-18T03:12:52;8.77;;;4.30;;
67798;SDS011;54596;43.216;27.904;2022-12-18T03:16:04;7.70;;;3.90;;
67798;SDS011;54596;43.216;27.904;2022-12-18T03:18:18;7.65;;;4.10;;
67798;SDS011;54596;43.216;27.904;2022-12-18T03:20:48;7.65;;;4.30;;
67798;SDS011;54596;43.216;27.904;2022-12-18T03:23:16;8.55;;;4.45;;
67798;SDS011;54596;43.216;27.904;2022-12-18T03:25:44;8.10;;;4.40;;
67798;SDS011;54596;43.216;27.904;2022-12-18T03:28:15;8.32;;;4.60;;
67798;SDS011;54596;43.216;27.904;2022-12-18T03:30:45;8.02;;;4.60;;
67798;SDS011;54596;43.216;27.904;2022-12-18T03:33:23;9.55;;;4.13;;
67798;SDS011;54596;43.216;27.904;2022-12-18T03:35:54;8.32;;;4.30;;
67798;SDS011;54596;43.216;27.904;2022-12-18T03:38:20;7.75;;;4.13;;
67798;SDS011;54596;43.216;27.904;2022-12-18T03:49:05;16.83;;;10.48;;
67798;SDS011;54596;43.216;27.904;2022-12-18T03:52:03;9.40;;;4.40;;
67798;SDS011;54596;43.216;27.904;2022-12-18T03:54:36;7.63;;;4.10;;
67798;SDS011;54596;43.216;27.904;2022-12-18T03:57:07;10.52;;;4.03;;
67798;SDS011;54596;43.216;27.904;2022-12-18T03:59:37;8.63;;;4.47;;
67798;SDS011;54596;43.216;27.904;2022-12-18T04:02:04;8.85;;;4.13;;
67798;SDS011;54596;43.216;27.904;2022-12-18T04:04:31;9.30;;;4.82;;
67798;SDS011;54596;43.216;27.904;2022-12-18T04:07:00;8.27;;;4.20;;
67798;SDS011;54596;43.216;27.904;2022-12-18T04:09:26;9.07;;;4.50;;
67798;SDS011;54596;43.216;27.904;2022-12-18T04:11:53;16.17;;;10.15;;
67798;SDS011;54596;43.216;27.904;2022-12-18T04:14:18;8.13;;;4.10;;
67798;SDS011;54596;43.216;27.904;2022-12-18T04:16:44;10.55;;;4.50;;
67798;SDS011;54596;43.216;27.904;2022-12-18T04:19:09;7.80;;;4.20;;
67798;SDS011;54596;43.216;27.904;2022-12-18T04:21:35;8.82;;;4.53;;
67798;SDS011;54596;43.216;27.904;2022-12-18T04:24:00;9.13;;;4.72;;
67798;SDS011;54596;43.216;27.904;2022-12-18T04:26:26;8.80;;;4.65;;
67798;SDS011;54596;43.216;27.904;2022-12-18T04:28:51;8.93;;;5.10;;
67798;SDS011;54596;43.216;27.904;2022-12-18T04:31:16;8.85;;;5.00;;
67798;SDS011;54596;43.216;27.904;2022-12-18T04:33:42;10.63;;;5.85;;
67798;SDS011;54596;43.216;27.904;2022-12-18T04:36:07;10.15;;;5.32;;
67798;SDS011;54596;43.216;27.904;2022-12-18T04:38:33;10.85;;;5.38;;
67798;SDS011;54596;43.216;27.904;2022-12-18T04:40:59;9.75;;;5.70;;
67798;SDS011;54596;43.216;27.904;2022-12-18T04:43:24;10.25;;;6.20;;
67798;SDS011;54596;43.216;27.904;2022-12-18T04:45:49;10.95;;;6.30;;
67798;SDS011;54596;43.216;27.904;2022-12-18T04:48:15;10.95;;;6.75;;
67798;SDS011;54596;43.216;27.904;2022-12-18T04:50:40;12.18;;;6.50;;
67798;SDS011;54596;43.216;27.904;2022-12-18T04:53:06;11.43;;;7.32;;
67798;SDS011;54596;43.216;27.904;2022-12-18T04:55:31;13.35;;;7.40;;
67798;SDS011;54596;43.216;27.904;2022-12-18T04:57:57;13.40;;;8.18;;
67798;SDS011;54596;43.216;27.904;2022-12-18T05:00:22;13.05;;;8.20;;
67798;SDS011;54596;43.216;27.904;2022-12-18T05:02:48;12.80;;;8.32;;
67798;SDS011;54596;43.216;27.904;2022-12-18T05:05:13;14.32;;;8.75;;
67798;SDS011;54596;43.216;27.904;2022-12-18T05:07:39;14.05;;;8.48;;
67798;SDS011;54596;43.216;27.904;2022-12-18T05:10:05;13.48;;;8.52;;
67798;SDS011;54596;43.216;27.904;2022-12-18T05:12:31;12.32;;;7.63;;
67798;SDS011;54596;43.216;27.904;2022-12-18T05:14:56;15.45;;;8.88;;
67798;SDS011;54596;43.216;27.904;2022-12-18T05:17:22;13.75;;;8.32;;
67798;SDS011;54596;43.216;27.904;2022-12-18T05:19:47;14.32;;;8.30;;
67798;SDS011;54596;43.216;27.904;2022-12-18T05:22:13;13.90;;;8.40;;
67798;SDS011;54596;43.216;27.904;2022-12-18T05:24:38;16.70;;;9.75;;
67798;SDS011;54596;43.216;27.904;2022-12-18T05:27:04;16.42;;;10.77;;
67798;SDS011;54596;43.216;27.904;2022-12-18T05:29:29;15.30;;;9.93;;
67798;SDS011;54596;43.216;27.904;2022-12-18T05:31:55;18.50;;;10.50;;
67798;SDS011;54596;43.216;27.904;2022-12-18T05:34:20;16.58;;;10.13;;
67798;SDS011;54596;43.216;27.904;2022-12-18T05:36:46;17.27;;;11.52;;
67798;SDS011;54596;43.216;27.904;2022-12-18T05:39:11;19.38;;;11.65;;
67798;SDS011;54596;43.216;27.904;2022-12-18T05:41:37;18.52;;;11.70;;
67798;SDS011;54596;43.216;27.904;2022-12-18T05:44:02;18.98;;;11.50;;
67798;SDS011;54596;43.216;27.904;2022-12-18T05:46:28;18.23;;;12.18;;
67798;SDS011;54596;43.216;27.904;2022-12-18T05:48:54;18.88;;;11.63;;
67798;SDS011;54596;43.216;27.904;2022-12-18T05:51:20;18.95;;;12.48;;
67798;SDS011;54596;43.216;27.904;2022-12-18T05:53:47;18.23;;;12.05;;
67798;SDS011;54596;43.216;27.904;2022-12-18T05:56:15;19.13;;;11.93;;
67798;SDS011;54596;43.216;27.904;2022-12-18T05:58:42;19.73;;;12.65;;
67798;SDS011;54596;43.216;27.904;2022-12-18T06:01:12;19.73;;;13.35;;
67798;SDS011;54596;43.216;27.904;2022-12-18T06:03:40;20.52;;;13.52;;
67798;SDS011;54596;43.216;27.904;2022-12-18T06:06:13;19.55;;;12.73;;
67798;SDS011;54596;43.216;27.904;2022-12-18T06:08:38;22.05;;;14.77;;
67798;SDS011;54596;43.216;27.904;2022-12-18T06:11:04;21.15;;;14.18;;
67798;SDS011;54596;43.216;27.904;2022-12-18T06:13:29;19.67;;;13.65;;
67798;SDS011;54596;43.216;27.904;2022-12-18T06:15:55;21.48;;;13.98;;
67798;SDS011;54596;43.216;27.904;2022-12-18T06:18:20;22.25;;;14.50;;
67798;SDS011;54596;43.216;27.904;2022-12-18T06:20:53;22.25;;;14.90;;
67798;SDS011;54596;43.216;27.904;2022-12-18T06:23:19;22.35;;;14.88;;
67798;SDS011;54596;43.216;27.904;2022-12-18T06:25:45;23.92;;;14.80;;
67798;SDS011;54596;43.216;27.904;2022-12-18T06:28:10;23.30;;;15.50;;
67798;SDS011;54596;43.216;27.904;2022-12-18T06:30:36;24.67;;;15.90;;
67798;SDS011;54596;43.216;27.904;2022-12-18T06:33:01;23.63;;;15.43;;
67798;SDS011;54596;43.216;27.904;2022-12-18T06:35:27;23.50;;;15.30;;
67798;SDS011;54596;43.216;27.904;2022-12-18T06:37:52;23.27;;;15.82;;
67798;SDS011;54596;43.216;27.904;2022-12-18T06:40:18;22.70;;;15.77;;
67798;SDS011;54596;43.216;27.904;2022-12-18T06:42:43;25.00;;;16.48;;
67798;SDS011;54596;43.216;27.904;2022-12-18T06:45:09;24.70;;;16.05;;
67798;SDS011;54596;43.216;27.904;2022-12-18T06:47:36;25.77;;;16.30;;
67798;SDS011;54596;43.216;27.904;2022-12-18T06:50:01;25.02;;;16.13;;
67798;SDS011;54596;43.216;27.904;2022-12-18T06:52:27;919.67;;;92.05;;
67798;SDS011;54596;43.216;27.904;2022-12-18T06:54:52;30.67;;;17.75;;
67798;SDS011;54596;43.216;27.904;2022-12-18T06:57:18;26.27;;;18.13;;
67798;SDS011;54596;43.216;27.904;2022-12-18T06:59:43;27.13;;;18.05;;
67798;SDS011;54596;43.216;27.904;2022-12-18T07:02:12;26.42;;;18.58;;
67798;SDS011;54596;43.216;27.904;2022-12-18T07:04:38;25.67;;;18.67;;
67798;SDS011;54596;43.216;27.904;2022-12-18T07:07:03;26.30;;;18.05;;
67798;SDS011;54596;43.216;27.904;2022-12-18T07:09:29;27.42;;;19.33;;
67798;SDS011;54596;43.216;27.904;2022-12-18T07:11:54;28.38;;;19.27;;
67798;SDS011;54596;43.216;27.904;2022-12-18T07:14:19;27.83;;;18.73;;
67798;SDS011;54596;43.216;27.904;2022-12-18T07:16:46;29.08;;;20.13;;
67798;SDS011;54596;43.216;27.904;2022-12-18T07:19:11;29.52;;;19.85;;
67798;SDS011;54596;43.216;27.904;2022-12-18T07:21:37;29.58;;;19.95;;
67798;SDS011;54596;43.216;27.904;2022-12-18T07:24:02;27.17;;;19.38;;
67798;SDS011;54596;43.216;27.904;2022-12-18T07:26:28;30.73;;;20.50;;
67798;SDS011;54596;43.216;27.904;2022-12-18T07:28:57;33.10;;;22.60;;
67798;SDS011;54596;43.216;27.904;2022-12-18T07:31:23;33.25;;;22.52;;
67798;SDS011;54596;43.216;27.904;2022-12-18T07:33:49;32.40;;;21.98;;
67798;SDS011;54596;43.216;27.904;2022-12-18T07:36:16;30.92;;;21.42;;
67798;SDS011;54596;43.216;27.904;2022-12-18T07:38:42;31.33;;;23.50;;
67798;SDS011;54596;43.216;27.904;2022-12-18T07:41:11;31.40;;;21.35;;
67798;SDS011;54596;43.216;27.904;2022-12-18T07:43:38;29.25;;;20.55;;
67798;SDS011;54596;43.216;27.904;2022-12-18T07:46:04;29.92;;;20.30;;
67798;SDS011;54596;43.216;27.904;2022-12-18T07:48:30;32.90;;;22.23;;
67798;SDS011;54596;43.216;27.904;2022-12-18T07:50:59;29.58;;;21.23;;
67798;SDS011;54596;43.216;27.904;2022-12-18T07:53:29;32.83;;;22.20;;
67798;SDS011;54596;43.216;27.904;2022-12-18T07:55:55;34.40;;;23.65;;
67798;SDS011;54596;43.216;27.904;2022-12-18T07:58:25;29.35;;;21.38;;
67798;SDS011;54596;43.216;27.904;2022-12-18T08:00:51;33.60;;;21.88;;
67798;SDS011;54596;43.216;27.904;2022-12-18T08:03:17;33.97;;;22.77;;
67798;SDS011;54596;43.216;27.904;2022-12-18T08:05:43;33.67;;;22.50;;
67798;SDS011;54596;43.216;27.904;2022-12-18T08:08:08;33.63;;;22.10;;
67798;SDS011;54596;43.216;27.904;2022-12-18T08:10:34;31.13;;;21.40;;
67798;SDS011;54596;43.216;27.904;2022-12-18T08:12:59;31.67;;;21.25;;
67798;SDS011;54596;43.216;27.904;2022-12-18T08:15:25;34.22;;;22.27;;
67798;SDS011;54596;43.216;27.904;2022-12-18T08:17:50;33.30;;;23.02;;
67798;SDS011;54596;43.216;27.904;2022-12-18T08:20:16;37.65;;;24.75;;
67798;SDS011;54596;43.216;27.904;2022-12-18T08:22:43;34.45;;;22.58;;
67798;SDS011;54596;43.216;27.904;2022-12-18T08:25:09;35.25;;;24.75;;
67798;SDS011;54596;43.216;27.904;2022-12-18T08:27:35;34.00;;;22.70;;
67798;SDS011;54596;43.216;27.904;2022-12-18T08:30:01;36.35;;;23.48;;
67798;SDS011;54596;43.216;27.904;2022-12-18T08:32:27;33.53;;;23.58;;
67798;SDS011;54596;43.216;27.904;2022-12-18T08:34:53;32.97;;;22.77;;
67798;SDS011;54596;43.216;27.904;2022-12-18T08:37:18;33.35;;;23.30;;
67798;SDS011;54596;43.216;27.904;2022-12-18T08:39:44;34.22;;;22.88;;
67798;SDS011;54596;43.216;27.904;2022-12-18T08:42:09;31.58;;;21.92;;
67798;SDS011;54596;43.216;27.904;2022-12-18T08:45:10;33.95;;;22.58;;
67798;SDS011;54596;43.216;27.904;2022-12-18T08:47:36;32.72;;;22.30;;
67798;SDS011;54596;43.216;27.904;2022-12-18T08:50:02;32.78;;;22.70;;
67798;SDS011;54596;43.216;27.904;2022-12-18T08:52:27;35.22;;;23.83;;
67798;SDS011;54596;43.216;27.904;2022-12-18T08:54:53;35.00;;;22.77;;
67798;SDS011;54596;43.216;27.904;2022-12-18T08:57:18;34.10;;;23.75;;
67798;SDS011;54596;43.216;27.904;2022-12-18T08:59:44;35.83;;;23.02;;
67798;SDS011;54596;43.216;27.904;2022-12-18T09:02:10;34.10;;;23.42;;
67798;SDS011;54596;43.216;27.904;2022-12-18T09:04:35;36.83;;;23.23;;
67798;SDS011;54596;43.216;27.904;2022-12-18T09:07:01;36.00;;;24.42;;
67798;SDS011;54596;43.216;27.904;2022-12-18T09:09:26;34.47;;;23.73;;
67798;SDS011;54596;43.216;27.904;2022-12-18T09:11:52;40.58;;;24.80;;
67798;SDS011;54596;43.216;27.904;2022-12-18T09:14:17;35.88;;;24.55;;
67798;SDS011;54596;43.216;27.904;2022-12-18T09:16:43;37.50;;;25.02;;
67798;SDS011;54596;43.216;27.904;2022-12-18T09:19:12;37.40;;;25.80;;
67798;SDS011;54596;43.216;27.904;2022-12-18T09:21:38;38.60;;;24.52;;
67798;SDS011;54596;43.216;27.904;2022-12-18T09:24:06;37.75;;;25.75;;
67798;SDS011;54596;43.216;27.904;2022-12-18T09:26:36;37.22;;;25.27;;
67798;SDS011;54596;43.216;27.904;2022-12-18T09:29:02;33.88;;;23.95;;
67798;SDS011;54596;43.216;27.904;2022-12-18T09:31:28;34.25;;;24.20;;
67798;SDS011;54596;43.216;27.904;2022-12-18T09:33:54;38.35;;;25.75;;
67798;SDS011;54596;43.216;27.904;2022-12-18T09:36:21;36.60;;;25.63;;
67798;SDS011;54596;43.216;27.904;2022-12-18T09:38:46;38.75;;;26.90;;
67798;SDS011;54596;43.216;27.904;2022-12-18T09:49:46;37.38;;;25.90;;
67798;SDS011;54596;43.216;27.904;2022-12-18T09:52:16;40.95;;;27.92;;
67798;SDS011;54596;43.216;27.904;2022-12-18T09:55:02;39.50;;;25.92;;
67798;SDS011;54596;43.216;27.904;2022-12-18T09:57:33;36.83;;;24.33;;
67798;SDS011;54596;43.216;27.904;2022-12-18T10:00:22;39.15;;;26.67;;
67798;SDS011;54596;43.216;27.904;2022-12-18T10:02:47;42.92;;;28.80;;
67798;SDS011;54596;43.216;27.904;2022-12-18T10:05:16;40.40;;;25.80;;
67798;SDS011;54596;43.216;27.904;2022-12-18T10:10:52;41.45;;;26.10;;
67798;SDS011;54596;43.216;27.904;2022-12-18T10:15:50;36.95;;;25.55;;
67798;SDS011;54596;43.216;27.904;2022-12-18T10:21:39;39.08;;;25.15;;
67798;SDS011;54596;43.216;27.904;2022-12-18T10:27:22;35.20;;;24.00;;
67798;SDS011;54596;43.216;27.904;2022-12-18T10:29:50;36.63;;;24.38;;
67798;SDS011;54596;43.216;27.904;2022-12-18T10:32:17;37.25;;;24.60;;
67798;SDS011;54596;43.216;27.904;2022-12-18T10:34:45;34.58;;;24.40;;
67798;SDS011;54596;43.216;27.904;2022-12-18T10:37:14;34.65;;;24.02;;
67798;SDS011;54596;43.216;27.904;2022-12-18T10:39:43;35.65;;;24.10;;
67798;SDS011;54596;43.216;27.904;2022-12-18T10:42:09;41.47;;;24.92;;
67798;SDS011;54596;43.216;27.904;2022-12-18T10:44:40;36.15;;;25.08;;
67798;SDS011;54596;43.216;27.904;2022-12-18T10:47:09;34.85;;;24.30;;
67798;SDS011;54596;43.216;27.904;2022-12-18T10:49:40;34.03;;;24.02;;
67798;SDS011;54596;43.216;27.904;2022-12-18T10:52:20;34.00;;;23.35;;
67798;SDS011;54596;43.216;27.904;2022-12-18T10:54:48;35.90;;;25.10;;
67798;SDS011;54596;43.216;27.904;2022-12-18T10:57:19;37.10;;;25.25;;
67798;SDS011;54596;43.216;27.904;2022-12-18T10:59:56;33.78;;;23.30;;
67798;SDS011;54596;43.216;27.904;2022-12-18T11:02:25;35.63;;;24.33;;
67798;SDS011;54596;43.216;27.904;2022-12-18T11:05:01;35.78;;;23.58;;
67798;SDS011;54596;43.216;27.904;2022-12-18T11:10:17;37.10;;;24.92;;
67798;SDS011;54596;43.216;27.904;2022-12-18T11:12:43;33.47;;;24.17;;
67798;SDS011;54596;43.216;27.904;2022-12-18T11:18:08;39.25;;;24.88;;
67798;SDS011;54596;43.216;27.904;2022-12-18T11:20:42;35.90;;;25.35;;
67798;SDS011;54596;43.216;27.904;2022-12-18T11:23:14;37.85;;;26.38;;
67798;SDS011;54596;43.216;27.904;2022-12-18T11:25:40;45.83;;;26.67;;
67798;SDS011;54596;43.216;27.904;2022-12-18T11:31:22;40.10;;;26.60;;
67798;SDS011;54596;43.216;27.904;2022-12-18T11:36:28;41.97;;;27.23;;
67798;SDS011;54596;43.216;27.904;2022-12-18T11:38:58;37.72;;;26.35;;
67798;SDS011;54596;43.216;27.904;2022-12-18T11:41:29;41.30;;;27.90;;
67798;SDS011;54596;43.216;27.904;2022-12-18T11:44:22;42.35;;;27.48;;
67798;SDS011;54596;43.216;27.904;2022-12-18T11:46:55;40.22;;;28.35;;
67798;SDS011;54596;43.216;27.904;2022-12-18T11:49:27;41.40;;;27.83;;
67798;SDS011;54596;43.216;27.904;2022-12-18T11:54:45;42.00;;;27.05;;
67798;SDS011;54596;43.216;27.904;2022-12-18T12:07:47;35.90;;;22.85;;
67798;SDS011;54596;43.216;27.904;2022-12-18T12:10:28;31.15;;;21.65;;
67798;SDS011;54596;43.216;27.904;2022-12-18T12:27:02;27.15;;;19.00;;
67798;SDS011;54596;43.216;27.904;2022-12-18T12:29:49;26.48;;;17.38;;
67798;SDS011;54596;43.216;27.904;2022-12-18T12:32:22;24.95;;;17.08;;
67798;SDS011;54596;43.216;27.904;2022-12-18T12:40:12;22.88;;;14.73;;
67798;SDS011;54596;43.216;27.904;2022-12-18T12:42:46;22.58;;;14.18;;
67798;SDS011;54596;43.216;27.904;2022-12-18T12:45:40;19.80;;;13.60;;
67798;SDS011;54596;43.216;27.904;2022-12-18T12:48:13;22.55;;;14.27;;
67798;SDS011;54596;43.216;27.904;2022-12-18T12:50:43;26.52;;;13.23;;
67798;SDS011;54596;43.216;27.904;2022-12-18T12:53:13;16.80;;;11.23;;
67798;SDS011;54596;43.216;27.904;2022-12-18T12:55:48;17.13;;;10.38;;
67798;SDS011;54596;43.216;27.904;2022-12-18T12:58:25;16.52;;;10.88;;
67798;SDS011;54596;43.216;27.904;2022-12-18T13:01:02;15.02;;;10.13;;
67798;SDS011;54596;43.216;27.904;2022-12-18T13:09:32;14.02;;;9.27;;
67798;SDS011;54596;43.216;27.904;2022-12-18T13:12:11;17.42;;;9.85;;
67798;SDS011;54596;43.216;27.904;2022-12-18T13:15:03;13.82;;;9.57;;
67798;SDS011;54596;43.216;27.904;2022-12-18T13:17:38;14.23;;;9.18;;
67798;SDS011;54596;43.216;27.904;2022-12-18T13:20:13;16.13;;;10.70;;
67798;SDS011;54596;43.216;27.904;2022-12-18T13:22:46;15.95;;;10.35;;
67798;SDS011;54596;43.216;27.904;2022-12-18T13:25:29;17.15;;;10.90;;
67798;SDS011;54596;43.216;27.904;2022-12-18T13:28:04;15.93;;;9.98;;
67798;SDS011;54596;43.216;27.904;2022-12-18T13:38:21;16.77;;;10.40;;
67798;SDS011;54596;43.216;27.904;2022-12-18T13:40:59;17.75;;;11.40;;
67798;SDS011;54596;43.216;27.904;2022-12-18T13:43:35;16.58;;;10.30;;
67798;SDS011;54596;43.216;27.904;2022-12-18T13:51:31;15.98;;;10.60;;
67798;SDS011;54596;43.216;27.904;2022-12-18T13:56:42;17.67;;;11.25;;
67798;SDS011;54596;43.216;27.904;2022-12-18T13:59:19;16.13;;;10.68;;
67798;SDS011;54596;43.216;27.904;2022-12-18T14:02:15;17.48;;;11.45;;
67798;SDS011;54596;43.216;27.904;2022-12-18T14:04:45;18.83;;;12.35;;
67798;SDS011;54596;43.216;27.904;2022-12-18T14:07:24;23.58;;;12.57;;
67798;SDS011;54596;43.216;27.904;2022-12-18T14:09:52;17.75;;;11.35;;
67798;SDS011;54596;43.216;27.904;2022-12-18T14:12:22;16.13;;;10.25;;
67798;SDS011;54596;43.216;27.904;2022-12-18T14:15:41;21.60;;;11.35;;
67798;SDS011;54596;43.216;27.904;2022-12-18T14:20:49;17.38;;;10.80;;
67798;SDS011;54596;43.216;27.904;2022-12-18T14:23:26;20.05;;;12.32;;
67798;SDS011;54596;43.216;27.904;2022-12-18T14:26:01;20.42;;;10.75;;
67798;SDS011;54596;43.216;27.904;2022-12-18T14:28:44;16.73;;;10.85;;
67798;SDS011;54596;43.216;27.904;2022-12-18T14:31:17;18.13;;;12.02;;
67798;SDS011;54596;43.216;27.904;2022-12-18T14:33:49;22.50;;;13.93;;
67798;SDS011;54596;43.216;27.904;2022-12-18T14:36:17;22.65;;;13.30;;
67798;SDS011;54596;43.216;27.904;2022-12-18T14:38:48;19.30;;;10.80;;
67798;SDS011;54596;43.216;27.904;2022-12-18T14:41:15;17.25;;;11.43;;
67798;SDS011;54596;43.216;27.904;2022-12-18T14:43:43;19.48;;;12.52;;
67798;SDS011;54596;43.216;27.904;2022-12-18T14:48:57;22.63;;;15.27;;
67798;SDS011;54596;43.216;27.904;2022-12-18T14:51:28;19.00;;;11.95;;
67798;SDS011;54596;43.216;27.904;2022-12-18T14:53:57;17.42;;;11.63;;
67798;SDS011;54596;43.216;27.904;2022-12-18T14:56:28;17.67;;;11.30;;
67798;SDS011;54596;43.216;27.904;2022-12-18T14:58:57;19.05;;;12.07;;
67798;SDS011;54596;43.216;27.904;2022-12-18T15:01:34;21.63;;;12.95;;
67798;SDS011;54596;43.216;27.904;2022-12-18T15:04:02;18.65;;;12.25;;
67798;SDS011;54596;43.216;27.904;2022-12-18T15:09:00;21.70;;;13.90;;
67798;SDS011;54596;43.216;27.904;2022-12-18T15:14:21;17.63;;;11.45;;
67798;SDS011;54596;43.216;27.904;2022-12-18T15:16:55;19.70;;;14.15;;
67798;SDS011;54596;43.216;27.904;2022-12-18T15:19:21;20.40;;;13.90;;
67798;SDS011;54596;43.216;27.904;2022-12-18T15:21:52;20.08;;;14.15;;
67798;SDS011;54596;43.216;27.904;2022-12-18T15:24:20;19.98;;;13.32;;
67798;SDS011;54596;43.216;27.904;2022-12-18T15:26:52;22.60;;;16.67;;
67798;SDS011;54596;43.216;27.904;2022-12-18T15:29:19;26.13;;;15.02;;
67798;SDS011;54596;43.216;27.904;2022-12-18T15:31:58;22.83;;;14.40;;
67798;SDS011;54596;43.216;27.904;2022-12-18T15:34:27;21.73;;;13.55;;
67798;SDS011;54596;43.216;27.904;2022-12-18T15:36:54;17.98;;;12.77;;
67798;SDS011;54596;43.216;27.904;2022-12-18T15:39:19;18.38;;;12.20;;
67798;SDS011;54596;43.216;27.904;2022-12-18T15:41:45;21.17;;;13.32;;
67798;SDS011;54596;43.216;27.904;2022-12-18T15:44:30;18.75;;;11.70;;
67798;SDS011;54596;43.216;27.904;2022-12-18T15:46:55;20.95;;;12.43;;
67798;SDS011;54596;43.216;27.904;2022-12-18T15:49:21;21.08;;;12.77;;
67798;SDS011;54596;43.216;27.904;2022-12-18T15:51:54;19.63;;;11.77;;
67798;SDS011;54596;43.216;27.904;2022-12-18T15:54:23;19.67;;;12.40;;
67798;SDS011;54596;43.216;27.904;2022-12-18T15:57:11;23.02;;;14.15;;
67798;SDS011;54596;43.216;27.904;2022-12-18T15:59:50;22.48;;;14.00;;
67798;SDS011;54596;43.216;27.904;2022-12-18T16:02:17;18.52;;;11.77;;
67798;SDS011;54596;43.216;27.904;2022-12-18T16:04:44;19.67;;;12.55;;
67798;SDS011;54596;43.216;27.904;2022-12-18T16:07:10;21.80;;;14.13;;
67798;SDS011;54596;43.216;27.904;2022-12-18T16:09:36;18.83;;;12.02;;
67798;SDS011;54596;43.216;27.904;2022-12-18T16:12:04;17.15;;;11.27;;
67798;SDS011;54596;43.216;27.904;2022-12-18T16:14:31;18.02;;;11.43;;
67798;SDS011;54596;43.216;27.904;2022-12-18T16:16:58;20.15;;;12.77;;
67798;SDS011;54596;43.216;27.904;2022-12-18T16:19:26;19.13;;;12.98;;
67798;SDS011;54596;43.216;27.904;2022-12-18T16:21:53;19.92;;;13.25;;
67798;SDS011;54596;43.216;27.904;2022-12-18T16:24:21;22.73;;;13.85;;
67798;SDS011;54596;43.216;27.904;2022-12-18T16:26:51;21.38;;;13.02;;
67798;SDS011;54596;43.216;27.904;2022-12-18T16:29:17;19.17;;;12.63;;
67798;SDS011;54596;43.216;27.904;2022-12-18T16:31:44;18.67;;;12.45;;
67798;SDS011;54596;43.216;27.904;2022-12-18T16:34:13;19.90;;;12.55;;
67798;SDS011;54596;43.216;27.904;2022-12-18T16:36:46;18.95;;;12.50;;
67798;SDS011;54596;43.216;27.904;2022-12-18T16:39:12;18.77;;;12.38;;
67798;SDS011;54596;43.216;27.904;2022-12-18T16:41:37;17.98;;;12.35;;